Time;durP1;ratioP1;P1;durP2;ratioP2;P2;SDS_P1;SDS_P2;PMS_P1;PMS_P2;Temp;Humidity;BMP_temperature;BMP_pressure;BME280_temperature;BME280_humidity;BME280_pressure;Samples;Min_cycle;Max_cycle;Signal;HPM_P1;HPM_P2
2023/05/27 00:01:37;;;;;;;16.63;9.32;;;11.30;96.10;;;;;;5090883;28;20024;-72
2023/05/27 00:04:03;;;;;;;14.60;8.68;;;11.20;95.60;;;;;;5094364;28;20491;-73
2023/05/27 00:06:29;;;;;;;13.75;7.95;;;11.10;95.20;;;;;;5096421;28;20027;-73
2023/05/27 00:08:55;;;;;;;14.85;8.32;;;10.90;95.00;;;;;;5077682;28;20409;-74
2023/05/27 00:11:21;;;;;;;17.73;8.98;;;10.90;94.80;;;;;;5063740;28;20318;-74
2023/05/27 00:13:46;;;;;;;14.77;8.15;;;10.70;94.60;;;;;;5097070;28;20032;-75
2023/05/27 00:16:13;;;;;;;13.85;8.43;;;10.60;93.90;;;;;;5085477;28;20154;-74
2023/05/27 00:18:39;;;;;;;18.25;9.13;;;10.50;93.50;;;;;;5075654;28;20058;-74
2023/05/27 00:21:04;;;;;;;16.15;8.43;;;10.40;92.80;;;;;;5083731;28;20086;-74
2023/05/27 00:23:30;;;;;;;15.25;8.65;;;10.40;92.70;;;;;;5085146;28;20036;-74
2023/05/27 00:25:56;;;;;;;15.60;9.20;;;10.30;92.20;;;;;;5086310;28;20033;-74
2023/05/27 00:28:22;;;;;;;15.60;9.00;;;10.30;91.90;;;;;;5089995;28;20017;-75
2023/05/27 00:30:48;;;;;;;15.82;8.60;;;10.30;91.60;;;;;;5086335;28;20020;-74
2023/05/27 00:33:14;;;;;;;14.48;8.63;;;10.30;91.90;;;;;;5083759;28;20028;-74
2023/05/27 00:35:40;;;;;;;14.57;8.38;;;10.20;91.80;;;;;;5094295;28;20064;-73
2023/05/27 00:38:05;;;;;;;16.15;8.70;;;10.20;91.30;;;;;;5076417;28;20081;-74
2023/05/27 00:40:35;;;;;;;15.00;9.48;;;10.20;91.40;;;;;;5085095;28;20021;-74
2023/05/27 00:43:01;;;;;;;19.23;9.38;;;10.20;90.90;;;;;;5074865;28;20063;-75
2023/05/27 00:45:26;;;;;;;17.33;8.27;;;10.20;90.90;;;;;;5077426;28;20055;-74
2023/05/27 00:47:52;;;;;;;14.55;8.70;;;10.20;91.20;;;;;;5093704;28;20290;-75
2023/05/27 00:50:18;;;;;;;15.70;8.70;;;10.20;91.50;;;;;;5091007;28;20023;-74
2023/05/27 00:52:44;;;;;;;17.65;9.23;;;10.20;91.60;;;;;;5090944;28;20024;-75
2023/05/27 00:55:10;;;;;;;15.57;8.40;;;10.20;91.50;;;;;;5093571;28;20359;-75
2023/05/27 00:57:37;;;;;;;12.38;8.73;;;10.20;91.50;;;;;;5078571;28;20024;-75
2023/05/27 01:00:09;;;;;;;15.70;8.10;;;10.20;91.70;;;;;;5095170;28;20020;-74
2023/05/27 01:02:40;;;;;;;16.35;8.23;;;10.20;91.60;;;;;;5086266;28;20020;-74
2023/05/27 01:05:07;;;;;;;17.05;9.57;;;10.20;91.80;;;;;;5083796;28;20028;-75
2023/05/27 01:08:02;;;;;;;16.83;9.77;;;10.20;91.60;;;;;;5098048;28;20109;-74
2023/05/27 01:10:53;;;;;;;19.13;9.50;;;10.10;91.80;;;;;;5084741;28;20102;-75
2023/05/27 01:13:39;;;;;;;14.75;8.63;;;10.20;92.40;;;;;;5089703;28;20082;-74
2023/05/27 01:16:11;;;;;;;17.70;8.40;;;10.10;92.80;;;;;;5078213;28;20024;-74
2023/05/27 01:18:43;;;;;;;16.08;8.77;;;10.10;92.60;;;;;;5097064;28;20026;-75
2023/05/27 01:21:12;;;;;;;15.93;9.90;;;10.10;92.50;;;;;;5092796;28;20032;-75
2023/05/27 01:23:38;;;;;;;12.95;8.23;;;10.00;92.40;;;;;;5077593;28;20031;-75
2023/05/27 01:26:05;;;;;;;15.20;8.35;;;10.00;92.30;;;;;;5096847;28;20024;-72
2023/05/27 01:28:31;;;;;;;16.30;8.85;;;10.00;91.90;;;;;;5117164;28;20328;-73
2023/05/27 01:31:21;;;;;;;17.85;9.75;;;9.90;91.80;;;;;;5092180;28;20024;-73
2023/05/27 01:33:58;;;;;;;17.15;9.23;;;9.80;91.70;;;;;;5089811;28;20107;-74
2023/05/27 01:36:27;;;;;;;15.70;9.25;;;9.80;90.80;;;;;;5077230;28;20079;-75
2023/05/27 01:38:55;;;;;;;23.17;11.30;;;9.70;90.70;;;;;;5078767;28;20112;-75
2023/05/27 01:41:24;;;;;;;15.18;8.93;;;9.60;90.50;;;;;;5093278;28;20079;-75
2023/05/27 01:43:52;;;;;;;22.02;10.23;;;9.60;90.80;;;;;;5083383;28;20111;-73
2023/05/27 01:46:17;;;;;;;19.70;10.38;;;9.60;90.70;;;;;;5055953;28;20136;-73
2023/05/27 01:48:44;;;;;;;20.70;10.10;;;9.60;91.20;;;;;;5096554;28;20032;-73
2023/05/27 01:51:10;;;;;;;17.05;10.98;;;9.60;91.50;;;;;;5095676;28;20448;-75
2023/05/27 01:53:37;;;;;;;16.25;10.27;;;9.60;91.60;;;;;;5096055;28;20039;-75
2023/05/27 01:56:02;;;;;;;19.23;11.15;;;9.60;91.70;;;;;;5085644;28;20032;-74
2023/05/27 01:58:28;;;;;;;15.93;9.77;;;9.50;91.40;;;;;;5087085;28;20440;-74
2023/05/27 02:00:54;;;;;;;19.80;10.82;;;9.50;90.90;;;;;;5066052;28;20434;-74
2023/05/27 02:03:20;;;;;;;19.80;10.80;;;9.40;90.80;;;;;;5086477;28;20032;-74
2023/05/27 02:05:46;;;;;;;20.38;10.43;;;9.40;90.80;;;;;;5096094;28;20082;-74
2023/05/27 02:08:11;;;;;;;20.10;10.70;;;9.40;90.40;;;;;;5086778;28;20122;-74
2023/05/27 02:10:37;;;;;;;19.15;10.75;;;9.40;90.50;;;;;;5075657;28;20034;-74
2023/05/27 02:13:03;;;;;;;17.55;10.43;;;9.40;91.00;;;;;;5079753;28;20039;-74
2023/05/27 02:15:32;;;;;;;18.83;10.20;;;9.40;91.00;;;;;;5092392;28;20031;-74
2023/05/27 02:17:58;;;;;;;18.52;11.25;;;9.30;90.90;;;;;;5096785;28;20031;-74
2023/05/27 02:20:24;;;;;;;23.10;10.85;;;9.20;90.60;;;;;;5093760;28;20039;-75
2023/05/27 02:22:50;;;;;;;18.35;10.25;;;9.20;90.40;;;;;;5091860;28;20325;-75
2023/05/27 02:25:16;;;;;;;17.17;10.10;;;9.20;90.00;;;;;;5086426;28;20024;-74
2023/05/27 02:27:47;;;;;;;19.50;10.45;;;9.20;90.00;;;;;;5090004;28;20094;-74
2023/05/27 02:30:13;;;;;;;24.63;10.98;;;9.10;90.20;;;;;;5102444;28;20022;-75
2023/05/27 02:32:39;;;;;;;20.13;9.88;;;9.10;90.00;;;;;;5116933;28;20023;-75
2023/05/27 02:35:05;;;;;;;20.20;10.02;;;9.00;89.50;;;;;;5103477;28;20080;-74
2023/05/27 02:37:31;;;;;;;18.23;10.20;;;9.00;89.80;;;;;;5089764;28;20055;-74
2023/05/27 02:39:57;;;;;;;15.35;9.57;;;8.90;89.80;;;;;;5078564;28;20409;-75
2023/05/27 02:42:23;;;;;;;18.42;9.57;;;8.90;89.60;;;;;;5078310;28;20443;-74
2023/05/27 02:44:48;;;;;;;22.25;10.05;;;8.90;89.70;;;;;;5094945;28;20067;-74
2023/05/27 02:47:14;;;;;;;17.35;9.05;;;8.90;89.50;;;;;;5096147;28;20313;-75
2023/05/27 02:49:40;;;;;;;19.83;9.35;;;8.90;89.80;;;;;;5094658;28;20024;-74
2023/05/27 02:52:07;;;;;;;27.38;10.35;;;8.90;90.00;;;;;;5095903;28;20020;-74
2023/05/27 02:54:32;;;;;;;22.15;10.40;;;8.90;90.50;;;;;;5091113;28;20028;-74
2023/05/27 02:56:58;;;;;;;19.73;9.20;;;8.80;90.40;;;;;;5079617;28;20016;-74
2023/05/27 02:59:24;;;;;;;16.55;9.05;;;8.80;90.70;;;;;;5072843;28;20332;-74
2023/05/27 03:01:49;;;;;;;20.50;10.48;;;8.70;90.80;;;;;;5085008;28;20757;-75
2023/05/27 03:04:16;;;;;;;20.40;10.13;;;8.70;90.80;;;;;;5078189;28;20108;-75
2023/05/27 03:06:42;;;;;;;19.05;9.77;;;8.60;90.00;;;;;;5089425;28;20046;-74
2023/05/27 03:09:08;;;;;;;19.15;10.10;;;8.50;88.90;;;;;;5088704;28;20024;-74
2023/05/27 03:11:34;;;;;;;19.25;9.57;;;8.50;89.20;;;;;;5079921;28;20044;-75
2023/05/27 03:14:00;;;;;;;18.70;8.93;;;8.50;89.00;;;;;;5075692;28;20032;-75
2023/05/27 03:16:25;;;;;;;17.98;9.32;;;8.50;89.20;;;;;;5093356;28;20052;-75
2023/05/27 03:18:51;;;;;;;18.33;8.77;;;8.50;89.60;;;;;;5071180;28;20421;-75
2023/05/27 03:21:18;;;;;;;16.88;9.05;;;8.50;89.80;;;;;;5091061;28;20110;-74
2023/05/27 03:23:44;;;;;;;21.02;9.15;;;8.40;89.60;;;;;;5090790;28;20024;-74
2023/05/27 03:26:09;;;;;;;16.77;9.13;;;8.40;89.80;;;;;;5085387;28;20024;-75
2023/05/27 03:28:35;;;;;;;17.80;9.27;;;8.30;89.50;;;;;;5084584;28;20035;-75
2023/05/27 03:31:01;;;;;;;20.52;9.25;;;8.20;89.10;;;;;;5071044;28;20295;-74
2023/05/27 03:33:26;;;;;;;17.65;8.82;;;8.20;88.90;;;;;;5091968;28;20016;-75
2023/05/27 03:35:52;;;;;;;15.55;9.70;;;8.10;88.80;;;;;;5091391;28;20048;-74
2023/05/27 03:38:18;;;;;;;19.20;9.48;;;8.10;88.80;;;;;;5064606;28;20032;-75
2023/05/27 03:40:43;;;;;;;22.42;9.77;;;8.00;88.00;;;;;;5096676;28;20024;-74
2023/05/27 03:43:09;;;;;;;16.17;9.10;;;8.10;87.50;;;;;;5098347;28;20059;-75
2023/05/27 03:45:37;;;;;;;19.33;10.02;;;8.10;87.60;;;;;;5098214;28;20023;-75
2023/05/27 03:48:03;;;;;;;16.55;8.32;;;8.10;88.00;;;;;;5098058;28;20039;-74
2023/05/27 03:50:29;;;;;;;15.60;8.75;;;8.20;88.30;;;;;;5090109;28;20326;-75
2023/05/27 03:52:54;;;;;;;19.80;9.27;;;8.20;88.50;;;;;;5099539;28;20052;-75
2023/05/27 03:55:23;;;;;;;16.00;8.93;;;8.30;89.40;;;;;;5089375;28;20025;-75
2023/05/27 03:57:48;;;;;;;15.93;8.40;;;8.30;89.70;;;;;;5061555;28;20024;-75
2023/05/27 04:00:16;;;;;;;17.25;9.05;;;8.30;89.80;;;;;;5088016;28;20030;-75
2023/05/27 04:02:42;;;;;;;17.30;8.93;;;8.30;89.80;;;;;;5075845;28;20026;-76
2023/05/27 04:05:08;;;;;;;17.90;8.32;;;8.30;89.90;;;;;;5079537;28;20032;-75
2023/05/27 04:07:34;;;;;;;14.23;8.52;;;8.30;90.20;;;;;;5098265;28;20099;-75
2023/05/27 04:09:59;;;;;;;15.93;9.07;;;8.30;90.50;;;;;;5087087;28;20027;-75
2023/05/27 04:12:25;;;;;;;16.63;8.63;;;8.30;90.60;;;;;;5078927;28;20074;-75
2023/05/27 04:14:51;;;;;;;17.45;8.32;;;8.30;90.50;;;;;;5071172;28;20020;-75
2023/05/27 04:17:17;;;;;;;17.60;8.25;;;8.30;90.60;;;;;;5097030;28;20028;-75
2023/05/27 04:19:43;;;;;;;15.73;8.93;;;8.40;90.40;;;;;;5098025;28;20031;-75
2023/05/27 04:22:08;;;;;;;18.83;8.77;;;8.40;90.80;;;;;;5086266;28;20032;-75
2023/05/27 04:24:34;;;;;;;14.50;7.97;;;8.40;91.10;;;;;;5085587;28;20036;-75
2023/05/27 04:27:01;;;;;;;14.73;7.65;;;8.50;91.10;;;;;;5085043;28;20032;-75
2023/05/27 04:29:27;;;;;;;13.88;8.25;;;8.50;91.10;;;;;;5095600;28;20371;-75
2023/05/27 04:31:52;;;;;;;17.75;8.73;;;8.50;91.00;;;;;;5087260;28;20052;-75
2023/05/27 04:34:18;;;;;;;16.60;8.45;;;8.60;91.10;;;;;;5097838;28;20132;-75
2023/05/27 04:36:49;;;;;;;17.20;8.40;;;8.60;91.60;;;;;;5085789;28;20113;-75
2023/05/27 04:39:15;;;;;;;15.20;8.15;;;8.70;91.80;;;;;;5093773;28;20027;-75
2023/05/27 04:41:41;;;;;;;13.25;7.53;;;8.70;92.10;;;;;;5084071;28;20060;-75
2023/05/27 04:44:07;;;;;;;14.93;7.97;;;8.80;92.30;;;;;;5083051;28;20365;-75
2023/05/27 04:46:33;;;;;;;15.95;7.18;;;8.90;92.50;;;;;;5089521;28;20060;-75
2023/05/27 04:48:59;;;;;;;15.27;7.75;;;8.90;92.30;;;;;;5093282;28;20050;-75
2023/05/27 04:51:25;;;;;;;16.00;7.65;;;9.00;92.80;;;;;;5064778;28;20079;-75
2023/05/27 04:53:50;;;;;;;17.35;8.30;;;9.00;93.10;;;;;;5091733;28;20052;-74
2023/05/27 04:56:17;;;;;;;14.77;7.90;;;9.10;93.40;;;;;;5074075;28;20038;-75
2023/05/27 04:58:46;;;;;;;15.88;7.60;;;9.10;94.10;;;;;;5096599;28;20107;-75
2023/05/27 05:01:16;;;;;;;15.32;7.60;;;9.20;93.70;;;;;;5094268;28;20028;-75
2023/05/27 05:06:29;;;;;;;13.60;7.38;;;9.40;94.00;;;;;;5076668;28;20047;-75
2023/05/27 05:08:55;;;;;;;15.98;7.60;;;9.50;94.40;;;;;;5085662;28;20365;-75
2023/05/27 05:11:21;;;;;;;14.43;8.10;;;9.60;94.90;;;;;;5087406;28;20376;-75
2023/05/27 05:13:46;;;;;;;13.70;7.78;;;9.70;94.90;;;;;;5090082;28;20028;-75
2023/05/27 05:16:12;;;;;;;18.13;8.43;;;9.90;94.80;;;;;;5073175;28;20124;-75
2023/05/27 05:18:37;;;;;;;16.30;7.65;;;10.00;95.50;;;;;;5084898;28;20099;-75
2023/05/27 05:21:03;;;;;;;13.35;7.07;;;10.10;96.40;;;;;;5094970;28;20031;-75
2023/05/27 05:23:29;;;;;;;15.82;7.40;;;10.20;96.50;;;;;;5085927;28;20040;-75
2023/05/27 05:25:58;;;;;;;12.35;7.38;;;10.40;96.70;;;;;;5082055;28;20417;-75
2023/05/27 05:28:24;;;;;;;13.65;7.18;;;10.40;97.30;;;;;;5081671;28;20028;-76
2023/05/27 05:30:50;;;;;;;14.45;7.57;;;10.50;97.70;;;;;;5062429;28;20027;-76
2023/05/27 05:33:15;;;;;;;13.45;7.80;;;10.70;98.00;;;;;;5076485;28;20478;-74
2023/05/27 05:35:41;;;;;;;15.60;6.68;;;10.90;98.00;;;;;;5052668;28;1064147;-75
2023/05/27 05:38:07;;;;;;;17.67;6.75;;;11.00;98.00;;;;;;5096397;28;20047;-75
2023/05/27 05:40:32;;;;;;;14.82;7.10;;;11.20;98.00;;;;;;5086697;28;20031;-75
2023/05/27 05:42:58;;;;;;;17.58;7.88;;;11.30;98.00;;;;;;5062471;28;20028;-75
2023/05/27 05:45:24;;;;;;;16.05;7.30;;;11.50;98.00;;;;;;5092406;28;20100;-75
2023/05/27 05:47:50;;;;;;;14.40;6.82;;;11.60;98.00;;;;;;5095242;28;20040;-75
2023/05/27 05:50:16;;;;;;;18.95;7.57;;;11.80;98.00;;;;;;5089696;28;20024;-75
2023/05/27 05:52:42;;;;;;;18.80;7.28;;;11.80;98.00;;;;;;5088238;28;20516;-74
2023/05/27 05:55:10;;;;;;;12.38;6.15;;;11.80;97.90;;;;;;5080192;28;20028;-75
2023/05/27 05:57:36;;;;;;;12.25;6.57;;;11.90;97.80;;;;;;5086263;28;20112;-77
2023/05/27 06:00:02;;;;;;;17.38;7.30;;;12.10;97.90;;;;;;5097203;28;20374;-76
2023/05/27 06:02:28;;;;;;;13.20;6.57;;;12.30;97.50;;;;;;5095201;28;20028;-75
2023/05/27 06:04:53;;;;;;;17.00;6.70;;;12.50;97.30;;;;;;5073613;28;20038;-76
2023/05/27 06:07:19;;;;;;;17.88;7.45;;;12.60;96.50;;;;;;5094548;28;20032;-77
2023/05/27 06:09:44;;;;;;;14.15;6.57;;;12.80;96.50;;;;;;5094343;28;20016;-76
2023/05/27 06:12:10;;;;;;;19.35;7.13;;;12.80;96.70;;;;;;5094208;28;20086;-75
2023/05/27 06:14:36;;;;;;;19.70;6.72;;;12.80;96.60;;;;;;5096942;28;20463;-76
2023/05/27 06:17:01;;;;;;;18.98;6.95;;;12.80;96.90;;;;;;5093729;28;20096;-75
2023/05/27 06:19:27;;;;;;;16.73;7.07;;;12.90;96.30;;;;;;5094899;28;20417;-75
2023/05/27 06:21:52;;;;;;;18.38;6.78;;;13.00;96.20;;;;;;5105090;28;20094;-75
2023/05/27 06:24:19;;;;;;;16.33;6.68;;;13.20;95.70;;;;;;5095692;28;20153;-75
2023/05/27 06:26:44;;;;;;;15.60;6.32;;;13.20;95.70;;;;;;5078362;28;20318;-75
2023/05/27 06:29:10;;;;;;;16.65;6.47;;;13.30;95.70;;;;;;5063500;28;20031;-75
2023/05/27 06:31:35;;;;;;;15.75;6.60;;;13.40;95.40;;;;;;5091809;28;20031;-75
2023/05/27 06:34:01;;;;;;;16.65;6.90;;;13.70;95.20;;;;;;5094467;28;20024;-75
2023/05/27 06:36:26;;;;;;;16.65;7.40;;;13.80;94.50;;;;;;5088863;28;20344;-75
2023/05/27 06:38:53;;;;;;;19.15;7.15;;;13.70;94.50;;;;;;5078029;28;20406;-76
2023/05/27 06:41:18;;;;;;;21.70;7.40;;;13.90;94.40;;;;;;5057626;28;20453;-76
2023/05/27 06:43:44;;;;;;;20.58;7.47;;;14.10;94.00;;;;;;5080766;28;20028;-76
2023/05/27 06:46:09;;;;;;;16.63;6.93;;;14.10;93.80;;;;;;5086697;28;20020;-75
2023/05/27 06:48:35;;;;;;;21.48;7.65;;;14.20;93.50;;;;;;5067176;28;20070;-76
2023/05/27 06:51:01;;;;;;;15.35;6.55;;;14.20;93.60;;;;;;5088924;28;20020;-76
2023/05/27 06:53:26;;;;;;;18.63;6.70;;;14.30;93.90;;;;;;5093832;28;20032;-75
2023/05/27 06:55:52;;;;;;;18.05;7.20;;;14.30;94.30;;;;;;5076889;28;20376;-76
2023/05/27 06:58:17;;;;;;;22.17;7.10;;;14.40;94.50;;;;;;5082390;28;20039;-76
2023/05/27 07:00:43;;;;;;;16.10;6.97;;;14.70;93.30;;;;;;5096442;28;20325;-75
2023/05/27 07:03:09;;;;;;;17.20;6.45;;;14.90;92.60;;;;;;5092214;28;20028;-76
2023/05/27 07:05:35;;;;;;;19.58;6.78;;;15.20;91.80;;;;;;5083130;28;20103;-75
2023/05/27 07:08:00;;;;;;;18.73;7.65;;;15.30;90.90;;;;;;5059772;28;20422;-76
2023/05/27 07:10:26;;;;;;;16.45;7.10;;;15.30;90.80;;;;;;5086653;28;20053;-76
2023/05/27 07:12:51;;;;;;;17.30;7.47;;;15.20;91.70;;;;;;5091101;28;20103;-76
2023/05/27 07:15:17;;;;;;;17.55;7.53;;;15.40;91.30;;;;;;5089577;28;20024;-76
2023/05/27 07:17:42;;;;;;;17.73;6.68;;;15.50;90.90;;;;;;5073830;28;20035;-76
2023/05/27 07:20:09;;;;;;;16.30;6.47;;;15.60;91.30;;;;;;5095257;28;20073;-75
2023/05/27 07:22:34;;;;;;;16.15;6.82;;;15.60;90.50;;;;;;5095731;28;20317;-75
2023/05/27 07:25:00;;;;;;;18.40;7.10;;;15.90;90.70;;;;;;5068408;28;20028;-75
2023/05/27 07:27:25;;;;;;;13.00;5.63;;;16.40;88.90;;;;;;5081145;28;20032;-75
2023/05/27 07:29:51;;;;;;;17.35;5.45;;;17.20;88.00;;;;;;5085394;28;20367;-75
2023/05/27 07:32:17;;;;;;;17.63;6.22;;;18.20;85.00;;;;;;5074604;28;20498;-75
2023/05/27 07:34:42;;;;;;;13.93;6.00;;;18.80;82.70;;;;;;5095099;28;20024;-76
2023/05/27 07:37:08;;;;;;;15.48;6.07;;;18.80;81.50;;;;;;5091791;28;20465;-75
2023/05/27 07:39:33;;;;;;;15.90;6.35;;;19.10;81.20;;;;;;5080540;28;20433;-76
2023/05/27 07:41:59;;;;;;;16.35;6.47;;;19.20;79.80;;;;;;5086760;28;20024;-76
2023/05/27 07:44:24;;;;;;;14.75;5.88;;;19.50;80.50;;;;;;5095672;28;20036;-76
2023/05/27 07:46:50;;;;;;;13.80;5.97;;;20.10;78.10;;;;;;5094814;28;20044;-76
2023/05/27 07:49:16;;;;;;;14.50;5.90;;;20.50;77.60;;;;;;5095385;28;20024;-76
2023/05/27 07:51:41;;;;;;;15.90;6.00;;;20.90;76.50;;;;;;5095247;28;20025;-76
2023/05/27 07:54:07;;;;;;;15.02;6.30;;;21.30;76.10;;;;;;5087219;28;20016;-76
2023/05/27 07:56:34;;;;;;;18.40;5.78;;;21.40;74.70;;;;;;5075400;28;20436;-76
2023/05/27 07:59:00;;;;;;;15.38;5.78;;;20.90;76.20;;;;;;5075291;28;20131;-76
2023/05/27 08:01:30;;;;;;;17.60;6.68;;;20.90;76.10;;;;;;5085107;28;20099;-75
2023/05/27 08:03:56;;;;;;;15.13;8.27;;;21.10;76.60;;;;;;5088518;28;20054;-76
2023/05/27 08:06:21;;;;;;;17.38;7.35;;;21.00;76.30;;;;;;5093491;28;20056;-75
2023/05/27 08:08:47;;;;;;;16.98;6.90;;;20.90;76.30;;;;;;5091010;28;20024;-75
2023/05/27 08:11:13;;;;;;;16.38;5.82;;;20.60;75.90;;;;;;5083577;28;20074;-75
2023/05/27 08:13:38;;;;;;;15.00;5.60;;;20.20;78.20;;;;;;5057606;28;20025;-75
2023/05/27 08:16:04;;;;;;;15.57;6.88;;;20.40;77.40;;;;;;5080675;28;20440;-76
2023/05/27 08:18:30;;;;;;;16.60;5.85;;;20.50;77.30;;;;;;5097198;28;20481;-75
2023/05/27 08:20:55;;;;;;;18.38;6.15;;;20.70;76.80;;;;;;5099060;28;20035;-76
2023/05/27 08:23:21;;;;;;;16.55;6.13;;;20.70;76.50;;;;;;5099048;28;20028;-75
2023/05/27 08:25:46;;;;;;;20.95;8.93;;;20.70;77.00;;;;;;5097966;28;20021;-76
2023/05/27 08:28:12;;;;;;;16.80;5.97;;;21.00;75.70;;;;;;5098926;28;20051;-76
2023/05/27 08:30:37;;;;;;;17.02;6.07;;;21.60;75.80;;;;;;5099025;28;20118;-76
2023/05/27 08:33:03;;;;;;;17.05;6.25;;;22.50;73.00;;;;;;5098034;28;20028;-75
2023/05/27 08:35:28;;;;;;;13.85;5.57;;;22.60;72.50;;;;;;5098577;28;20095;-76
2023/05/27 08:37:54;;;;;;;20.13;7.28;;;22.00;74.20;;;;;;5098600;28;20022;-76
2023/05/27 08:40:20;;;;;;;15.50;6.22;;;22.20;73.80;;;;;;5097395;28;20059;-75
2023/05/27 08:42:48;;;;;;;14.63;6.68;;;23.00;71.80;;;;;;5098653;28;20077;-74
2023/05/27 08:45:14;;;;;;;13.95;6.78;;;23.40;68.80;;;;;;5098527;28;20024;-75
2023/05/27 08:47:40;;;;;;;15.10;6.47;;;22.90;69.90;;;;;;5098543;28;20024;-74
2023/05/27 08:50:07;;;;;;;15.88;6.60;;;23.00;69.90;;;;;;5096158;28;20028;-74
2023/05/27 08:52:33;;;;;;;15.95;5.50;;;23.00;70.50;;;;;;5098480;28;20024;-76
2023/05/27 08:54:59;;;;;;;14.05;5.88;;;23.40;71.80;;;;;;5097241;28;20027;-75
2023/05/27 08:57:32;;;;;;;16.45;6.43;;;23.60;70.30;;;;;;5098459;28;20433;-76
2023/05/27 08:59:58;;;;;;;15.52;6.22;;;23.60;70.70;;;;;;5080345;28;20027;-75
2023/05/27 09:02:25;;;;;;;12.95;5.57;;;23.60;69.60;;;;;;5098464;28;20039;-75
2023/05/27 09:04:51;;;;;;;14.13;6.03;;;24.30;69.40;;;;;;5059960;28;20081;-75
2023/05/27 09:07:19;;;;;;;17.85;6.82;;;24.20;68.90;;;;;;5077909;28;20024;-75
2023/05/27 09:09:57;;;;;;;22.98;6.97;;;23.50;69.70;;;;;;5076753;28;20020;-75
2023/05/27 09:12:27;;;;;;;12.40;6.22;;;23.30;71.20;;;;;;5077791;28;20081;-74
2023/05/27 09:14:54;;;;;;;16.13;6.50;;;23.20;70.80;;;;;;5077823;28;20311;-75
2023/05/27 09:17:22;;;;;;;15.70;6.38;;;23.60;70.90;;;;;;5078124;28;20314;-75
2023/05/27 09:19:54;;;;;;;15.35;6.32;;;23.40;70.80;;;;;;5095887;28;20020;-74
2023/05/27 09:22:25;;;;;;;17.15;6.53;;;23.30;71.00;;;;;;5098034;28;20098;-75
2023/05/27 09:24:55;;;;;;;15.88;6.28;;;23.70;70.90;;;;;;5096705;28;20024;-75
2023/05/27 09:27:31;;;;;;;13.23;5.97;;;24.30;69.60;;;;;;5097769;28;20047;-80
2023/05/27 09:29:58;;;;;;;14.40;6.07;;;24.70;68.10;;;;;;5096661;28;20168;-75
2023/05/27 09:32:30;;;;;;;17.23;6.82;;;24.40;69.10;;;;;;5086178;28;20024;-74
2023/05/27 09:34:55;;;;;;;14.07;6.85;;;24.10;68.90;;;;;;5077362;28;20024;-74
2023/05/27 09:37:34;;;;;;;16.52;6.03;;;23.30;70.90;;;;;;5092599;28;20044;-75
2023/05/27 09:40:10;;;;;;;16.98;6.18;;;23.10;71.30;;;;;;5078546;28;20028;-74
2023/05/27 09:42:43;;;;;;;15.15;6.35;;;23.80;69.90;;;;;;5097500;28;20070;-74
2023/05/27 09:45:17;;;;;;;16.40;6.30;;;24.10;70.40;;;;;;5097516;28;20032;-74
2023/05/27 09:47:52;;;;;;;;;;;24.00;69.90;;;;;;5097223;28;20396;-75
2023/05/27 09:50:19;;;;;;;14.60;6.38;;;24.00;69.70;;;;;;5096705;28;20308;-75
2023/05/27 09:52:48;;;;;;;15.10;6.13;;;24.80;68.80;;;;;;5095575;28;20099;-74
2023/05/27 09:55:14;;;;;;;14.63;6.20;;;25.30;64.90;;;;;;5096032;28;20043;-75
2023/05/27 09:57:41;;;;;;;19.77;6.50;;;25.10;67.30;;;;;;5097252;28;20310;-75
2023/05/27 10:00:11;;;;;;;16.10;6.13;;;25.80;67.90;;;;;;5076641;28;20043;-75
2023/05/27 10:02:41;;;;;;;15.23;6.45;;;27.10;65.40;;;;;;5068350;28;20029;-75
2023/05/27 10:05:08;;;;;;;17.40;7.25;;;27.50;61.70;;;;;;5059792;28;20021;-75
2023/05/27 10:07:38;;;;;;;17.45;7.22;;;26.50;64.00;;;;;;5076859;28;20087;-75
2023/05/27 10:10:09;;;;;;;15.68;6.35;;;25.10;66.00;;;;;;5075386;28;20023;-75
2023/05/27 10:12:37;;;;;;;11.50;5.70;;;24.40;68.30;;;;;;5076757;28;20074;-75
2023/05/27 10:15:03;;;;;;;16.45;6.95;;;24.00;68.00;;;;;;5076628;28;20422;-75
2023/05/27 10:17:46;;;;;;;17.00;7.10;;;23.30;69.10;;;;;;5093330;28;20040;-74
2023/05/27 10:20:12;;;;;;;15.47;6.23;;;23.30;69.40;;;;;;5096926;28;20253;-74
2023/05/27 10:22:46;;;;;;;16.55;6.25;;;23.50;69.60;;;;;;5089920;28;20363;-75
2023/05/27 10:25:13;;;;;;;16.23;6.18;;;24.60;70.30;;;;;;5091235;28;20108;-75
2023/05/27 10:27:44;;;;;;;15.63;6.70;;;25.40;66.80;;;;;;5090157;28;20504;-75
2023/05/27 10:30:11;;;;;;;12.80;5.72;;;25.30;66.20;;;;;;5092450;28;20035;-75
2023/05/27 10:32:49;;;;;;;16.05;6.07;;;24.30;67.80;;;;;;5092390;28;20020;-75
2023/05/27 10:35:17;;;;;;;11.98;5.90;;;24.90;66.20;;;;;;5084343;28;20023;-75
2023/05/27 10:37:43;;;;;;;11.15;6.05;;;25.80;65.60;;;;;;5095439;28;20776;-75
2023/05/27 10:40:09;;;;;;;16.77;6.00;;;27.00;63.00;;;;;;5095044;28;20457;-75
2023/05/27 10:42:35;;;;;;;10.57;5.53;;;26.60;61.80;;;;;;5078496;28;20367;-75
2023/05/27 10:45:10;;;;;;;12.13;6.40;;;26.90;63.30;;;;;;5096104;28;20020;-75
2023/05/27 10:47:37;;;;;;;9.98;5.85;;;27.50;59.60;;;;;;5095640;28;20608;-75
2023/05/27 10:50:13;;;;;;;14.10;6.80;;;27.50;59.60;;;;;;5094003;28;20047;-75
2023/05/27 10:52:40;;;;;;;11.02;6.40;;;27.80;60.00;;;;;;5079242;28;20448;-75
2023/05/27 10:55:07;;;;;;;12.88;6.22;;;28.00;57.00;;;;;;5094179;28;20056;-73
2023/05/27 10:57:37;;;;;;;9.90;5.90;;;27.90;57.80;;;;;;5109647;28;20030;-74
2023/05/27 11:00:08;;;;;;;12.65;6.90;;;28.10;56.90;;;;;;5112032;28;20067;-74
2023/05/27 11:02:36;;;;;;;12.65;5.85;;;27.30;56.70;;;;;;5094566;28;20028;-75
2023/05/27 11:05:09;;;;;;;12.20;6.07;;;26.80;58.20;;;;;;5094500;28;20340;-75
2023/05/27 11:07:40;;;;;;;10.77;6.07;;;27.40;60.10;;;;;;5094291;28;20051;-75
2023/05/27 11:10:07;;;;;;;13.75;7.25;;;27.00;58.70;;;;;;5095550;28;20028;-73
2023/05/27 11:12:33;;;;;;;13.63;6.97;;;26.30;58.40;;;;;;5090030;28;20029;-74
2023/05/27 11:14:59;;;;;;;12.40;6.03;;;25.80;60.90;;;;;;5069516;28;20071;-73
2023/05/27 11:17:28;;;;;;;11.15;5.93;;;26.70;60.10;;;;;;5092394;28;20063;-74
2023/05/27 11:19:54;;;;;;;11.57;5.78;;;27.30;59.70;;;;;;5089490;28;20104;-73
2023/05/27 11:22:20;;;;;;;13.68;6.63;;;27.80;57.80;;;;;;5094075;28;20637;-74
2023/05/27 11:25:00;;;;;;;10.20;6.00;;;27.10;58.60;;;;;;5091766;28;20068;-73
2023/05/27 11:27:36;;;;;;;12.77;6.40;;;26.70;60.90;;;;;;5091532;28;20085;-74
2023/05/27 11:30:12;;;;;;;12.43;6.50;;;27.10;61.20;;;;;;5081477;28;20031;-74
2023/05/27 11:32:39;;;;;;;12.00;6.47;;;27.30;58.60;;;;;;5095269;28;20016;-74
2023/05/27 11:35:12;;;;;;;14.13;6.43;;;27.50;59.50;;;;;;5089182;28;20028;-74
2023/05/27 11:37:37;;;;;;;10.98;6.50;;;27.20;58.60;;;;;;5083604;28;20056;-73
2023/05/27 11:40:12;;;;;;;13.52;6.50;;;27.10;59.60;;;;;;5088962;28;20032;-73
2023/05/27 11:42:44;;;;;;;12.23;5.63;;;27.40;59.70;;;;;;5088788;28;20020;-73
2023/05/27 11:45:18;;;;;;;10.80;5.85;;;27.70;61.40;;;;;;5088477;28;20028;-73
2023/05/27 11:47:50;;;;;;;15.57;7.00;;;28.40;59.50;;;;;;5093122;28;20043;-74
2023/05/27 11:50:28;;;;;;;13.80;6.15;;;28.10;56.00;;;;;;5084172;28;20036;-74
2023/05/27 11:52:58;;;;;;;12.07;6.68;;;25.90;59.90;;;;;;5094363;28;20028;-73
2023/05/27 11:55:24;;;;;;;11.85;6.30;;;25.70;61.50;;;;;;5089805;28;20109;-74
2023/05/27 11:57:50;;;;;;;11.05;6.18;;;26.10;61.50;;;;;;5091136;28;20027;-74
2023/05/27 12:00:15;;;;;;;10.45;5.75;;;26.50;60.20;;;;;;5094972;28;20562;-73
2023/05/27 12:02:42;;;;;;;10.57;5.93;;;26.50;60.20;;;;;;5098584;28;20115;-73
2023/05/27 12:05:09;;;;;;;14.55;6.63;;;26.80;59.50;;;;;;5111742;28;20106;-74
2023/05/27 12:07:35;;;;;;;10.32;5.82;;;27.30;58.70;;;;;;5097108;28;20111;-74
2023/05/27 12:10:01;;;;;;;12.05;5.63;;;27.50;58.60;;;;;;5089469;28;20099;-75
2023/05/27 12:12:27;;;;;;;14.30;7.75;;;27.10;60.10;;;;;;5097634;28;20031;-75
2023/05/27 12:14:54;;;;;;;10.73;6.35;;;27.60;59.80;;;;;;5096325;28;20032;-74
2023/05/27 12:17:22;;;;;;;12.18;6.32;;;27.20;57.10;;;;;;5090282;28;20115;-73
2023/05/27 12:19:48;;;;;;;11.98;5.97;;;27.10;58.30;;;;;;5086497;28;20103;-74
2023/05/27 12:22:13;;;;;;;13.07;6.35;;;27.50;57.60;;;;;;5079239;28;20131;-74
2023/05/27 12:24:39;;;;;;;13.32;6.28;;;27.70;56.90;;;;;;5086086;28;20040;-74
2023/05/27 12:27:04;;;;;;;11.98;6.07;;;27.90;57.20;;;;;;5079796;28;20036;-77
2023/05/27 12:29:30;;;;;;;12.30;6.18;;;28.20;56.50;;;;;;5096183;28;20086;-74
2023/05/27 12:31:56;;;;;;;13.10;5.97;;;28.00;56.00;;;;;;5086067;28;20371;-75
2023/05/27 12:34:22;;;;;;;11.68;6.70;;;27.50;56.70;;;;;;5091963;28;20093;-75
2023/05/27 12:36:47;;;;;;;12.25;6.40;;;27.80;57.50;;;;;;5105973;28;20056;-74
2023/05/27 12:39:13;;;;;;;11.88;6.00;;;28.20;57.90;;;;;;5097505;28;20318;-74
2023/05/27 12:41:38;;;;;;;10.23;6.30;;;28.00;56.20;;;;;;5098525;28;20299;-75